sensor_id;sensor_type;location;lat;lon;timestamp;pressure;altitude;pressure_sealevel;temperature;humidity
70011;BME280;59543;37.950;-122.338;2022-11-20T00:00:52;101898.06;;;15.10;28.84
70011;BME280;59543;37.950;-122.338;2022-11-20T00:03:18;101904.56;;;14.99;29.11
70011;BME280;59543;37.950;-122.338;2022-11-20T00:05:45;101902.19;;;14.86;29.42
70011;BME280;59543;37.950;-122.338;2022-11-20T00:08:12;101911.00;;;14.98;29.19
70011;BME280;59543;37.950;-122.338;2022-11-20T00:10:41;101908.59;;;14.95;30.07
70011;BME280;59543;37.950;-122.338;2022-11-20T00:13:07;101909.09;;;14.71;29.41
70011;BME280;59543;37.950;-122.338;2022-11-20T00:15:34;101915.78;;;14.67;29.66
70011;BME280;59543;37.950;-122.338;2022-11-20T00:18:00;101912.09;;;14.58;29.69
70011;BME280;59543;37.950;-122.338;2022-11-20T00:20:26;101913.97;;;14.58;29.28
70011;BME280;59543;37.950;-122.338;2022-11-20T00:22:52;101916.97;;;14.45;29.53
70011;BME280;59543;37.950;-122.338;2022-11-20T00:25:18;101913.69;;;14.41;29.54
70011;BME280;59543;37.950;-122.338;2022-11-20T00:27:45;101906.59;;;14.31;29.55
70011;BME280;59543;37.950;-122.338;2022-11-20T00:30:11;101913.28;;;14.36;29.37
70011;BME280;59543;37.950;-122.338;2022-11-20T00:32:37;101909.75;;;14.26;29.68
70011;BME280;59543;37.950;-122.338;2022-11-20T00:35:04;101906.91;;;14.18;29.59
70011;BME280;59543;37.950;-122.338;2022-11-20T00:37:30;101917.72;;;14.08;29.87
70011;BME280;59543;37.950;-122.338;2022-11-20T00:39:56;101914.72;;;14.02;29.74
70011;BME280;59543;37.950;-122.338;2022-11-20T00:42:22;101920.56;;;14.07;29.66
70011;BME280;59543;37.950;-122.338;2022-11-20T00:44:48;101912.88;;;13.92;29.69
70011;BME280;59543;37.950;-122.338;2022-11-20T00:47:15;101909.16;;;13.84;29.60
70011;BME280;59543;37.950;-122.338;2022-11-20T00:49:41;101917.56;;;13.81;29.69
70011;BME280;59543;37.950;-122.338;2022-11-20T00:52:07;101908.03;;;13.86;29.22
70011;BME280;59543;37.950;-122.338;2022-11-20T00:54:33;101913.44;;;13.86;29.57
70011;BME280;59543;37.950;-122.338;2022-11-20T00:56:59;101910.28;;;13.71;29.48
70011;BME280;59543;37.950;-122.338;2022-11-20T00:59:26;101911.47;;;13.69;29.52
70011;BME280;59543;37.950;-122.338;2022-11-20T01:01:52;101913.31;;;13.78;29.31
70011;BME280;59543;37.950;-122.338;2022-11-20T01:04:18;101919.41;;;13.70;29.03
70011;BME280;59543;37.950;-122.338;2022-11-20T01:06:44;101922.13;;;13.70;28.92
70011;BME280;59543;37.950;-122.338;2022-11-20T01:09:13;101913.88;;;13.72;28.86
70011;BME280;59543;37.950;-122.338;2022-11-20T01:11:42;101917.72;;;13.69;29.21
70011;BME280;59543;37.950;-122.338;2022-11-20T01:14:18;101928.25;;;13.63;28.74
70011;BME280;59543;37.950;-122.338;2022-11-20T01:16:47;101922.56;;;13.76;28.71
70011;BME280;59543;37.950;-122.338;2022-11-20T01:19:23;101932.66;;;13.64;28.75
70011;BME280;59543;37.950;-122.338;2022-11-20T01:21:51;101926.97;;;13.67;28.77
70011;BME280;59543;37.950;-122.338;2022-11-20T01:24:20;101933.91;;;13.60;28.77
70011;BME280;59543;37.950;-122.338;2022-11-20T01:26:48;101929.22;;;13.62;28.62
70011;BME280;59543;37.950;-122.338;2022-11-20T01:29:24;101925.38;;;13.55;28.72
70011;BME280;59543;37.950;-122.338;2022-11-20T01:31:51;101934.91;;;13.59;28.33
70011;BME280;59543;37.950;-122.338;2022-11-20T01:34:19;101939.31;;;13.60;28.49
70011;BME280;59543;37.950;-122.338;2022-11-20T01:36:46;101933.34;;;13.56;28.73
70011;BME280;59543;37.950;-122.338;2022-11-20T01:39:18;101946.84;;;13.56;28.55
70011;BME280;59543;37.950;-122.338;2022-11-20T01:41:45;101945.00;;;13.57;28.33
70011;BME280;59543;37.950;-122.338;2022-11-20T01:44:54;101948.59;;;13.67;27.86
70011;BME280;59543;37.950;-122.338;2022-11-20T01:50:11;101952.16;;;13.67;27.89
70011;BME280;59543;37.950;-122.338;2022-11-20T01:52:47;101955.00;;;13.66;27.85
70011;BME280;59543;37.950;-122.338;2022-11-20T01:55:19;101957.53;;;13.58;28.27
70011;BME280;59543;37.950;-122.338;2022-11-20T01:57:48;101957.84;;;13.64;27.83
70011;BME280;59543;37.950;-122.338;2022-11-20T02:00:17;101959.81;;;13.62;28.04
70011;BME280;59543;37.950;-122.338;2022-11-20T02:03:06;101957.72;;;13.66;27.87
70011;BME280;59543;37.950;-122.338;2022-11-20T02:05:40;101952.81;;;13.60;27.94
70011;BME280;59543;37.950;-122.338;2022-11-20T02:08:09;101960.25;;;13.67;27.62
70011;BME280;59543;37.950;-122.338;2022-11-20T02:10:35;101970.22;;;13.57;28.05
70011;BME280;59543;37.950;-122.338;2022-11-20T02:13:02;101961.50;;;13.54;27.99
70011;BME280;59543;37.950;-122.338;2022-11-20T02:15:47;101961.53;;;13.63;27.71
70011;BME280;59543;37.950;-122.338;2022-11-20T02:18:15;101956.41;;;13.60;27.86
70011;BME280;59543;37.950;-122.338;2022-11-20T02:20:44;101960.53;;;13.55;28.02
70011;BME280;59543;37.950;-122.338;2022-11-20T02:26:16;101963.06;;;13.56;27.68
70011;BME280;59543;37.950;-122.338;2022-11-20T02:28:43;101974.06;;;13.64;27.58
70011;BME280;59543;37.950;-122.338;2022-11-20T02:31:09;101962.22;;;13.65;27.34
70011;BME280;59543;37.950;-122.338;2022-11-20T02:33:35;101966.09;;;13.63;27.69
70011;BME280;59543;37.950;-122.338;2022-11-20T02:36:01;101960.94;;;13.60;27.56
70011;BME280;59543;37.950;-122.338;2022-11-20T02:38:28;101964.19;;;13.54;27.65
70011;BME280;59543;37.950;-122.338;2022-11-20T02:40:54;101966.09;;;13.63;27.77
70011;BME280;59543;37.950;-122.338;2022-11-20T02:43:20;101964.34;;;13.52;27.30
70011;BME280;59543;37.950;-122.338;2022-11-20T02:45:46;101962.50;;;13.62;26.89
70011;BME280;59543;37.950;-122.338;2022-11-20T02:48:12;101971.06;;;13.58;27.14
70011;BME280;59543;37.950;-122.338;2022-11-20T02:50:39;101978.88;;;13.61;26.96
70011;BME280;59543;37.950;-122.338;2022-11-20T02:53:06;101972.91;;;13.57;27.23
70011;BME280;59543;37.950;-122.338;2022-11-20T02:55:32;101977.44;;;13.57;26.93
70011;BME280;59543;37.950;-122.338;2022-11-20T02:57:58;101987.13;;;13.59;26.70
70011;BME280;59543;37.950;-122.338;2022-11-20T03:00:25;101988.81;;;13.50;26.91
70011;BME280;59543;37.950;-122.338;2022-11-20T03:02:51;101991.84;;;13.57;26.90
70011;BME280;59543;37.950;-122.338;2022-11-20T03:05:17;101989.44;;;13.64;26.78
70011;BME280;59543;37.950;-122.338;2022-11-20T03:07:44;101990.84;;;13.68;26.51
70011;BME280;59543;37.950;-122.338;2022-11-20T03:10:10;101990.00;;;13.67;26.49
70011;BME280;59543;37.950;-122.338;2022-11-20T03:12:36;101992.97;;;13.64;26.81
70011;BME280;59543;37.950;-122.338;2022-11-20T03:15:02;101990.56;;;13.61;26.52
70011;BME280;59543;37.950;-122.338;2022-11-20T03:17:29;101985.16;;;13.71;26.34
70011;BME280;59543;37.950;-122.338;2022-11-20T03:19:56;101985.03;;;13.63;26.82
70011;BME280;59543;37.950;-122.338;2022-11-20T03:22:22;101992.84;;;13.66;26.27
70011;BME280;59543;37.950;-122.338;2022-11-20T03:24:48;101985.44;;;13.68;26.25
70011;BME280;59543;37.950;-122.338;2022-11-20T03:27:15;101996.56;;;13.75;26.25
70011;BME280;59543;37.950;-122.338;2022-11-20T03:29:41;101992.97;;;13.64;26.34
70011;BME280;59543;37.950;-122.338;2022-11-20T03:32:07;101993.53;;;13.58;26.36
70011;BME280;59543;37.950;-122.338;2022-11-20T03:34:33;101996.25;;;13.58;26.43
70011;BME280;59543;37.950;-122.338;2022-11-20T03:36:59;101990.94;;;13.57;26.46
70011;BME280;59543;37.950;-122.338;2022-11-20T03:39:25;101994.53;;;13.57;26.39
70011;BME280;59543;37.950;-122.338;2022-11-20T03:41:52;101998.94;;;13.58;26.25
70011;BME280;59543;37.950;-122.338;2022-11-20T03:44:21;102003.22;;;13.61;25.75
70011;BME280;59543;37.950;-122.338;2022-11-20T03:46:47;102005.94;;;13.70;25.79
70011;BME280;59543;37.950;-122.338;2022-11-20T03:49:13;101999.97;;;13.67;25.84
70011;BME280;59543;37.950;-122.338;2022-11-20T03:51:40;102010.59;;;13.59;26.04
70011;BME280;59543;37.950;-122.338;2022-11-20T03:54:07;102012.47;;;13.58;26.30
70011;BME280;59543;37.950;-122.338;2022-11-20T03:56:37;102013.31;;;13.59;26.06
70011;BME280;59543;37.950;-122.338;2022-11-20T03:59:03;102010.03;;;13.55;26.39
70011;BME280;59543;37.950;-122.338;2022-11-20T04:01:35;102014.00;;;13.51;26.43
70011;BME280;59543;37.950;-122.338;2022-11-20T04:04:05;102015.28;;;13.57;26.28
70011;BME280;59543;37.950;-122.338;2022-11-20T04:06:35;102023.66;;;13.54;26.40
70011;BME280;59543;37.950;-122.338;2022-11-20T04:09:03;102025.13;;;13.58;26.39
70011;BME280;59543;37.950;-122.338;2022-11-20T04:11:32;102023.66;;;13.54;26.37
70011;BME280;59543;37.950;-122.338;2022-11-20T04:14:00;102021.59;;;13.67;26.49
70011;BME280;59543;37.950;-122.338;2022-11-20T04:16:29;102034.06;;;13.48;26.80
70011;BME280;59543;37.950;-122.338;2022-11-20T04:18:57;102037.44;;;13.41;26.58
70011;BME280;59543;37.950;-122.338;2022-11-20T04:21:24;102041.41;;;13.37;26.45
70011;BME280;59543;37.950;-122.338;2022-11-20T04:23:52;102049.09;;;13.41;26.88
70011;BME280;59543;37.950;-122.338;2022-11-20T04:26:22;102046.56;;;13.49;26.71
70011;BME280;59543;37.950;-122.338;2022-11-20T04:28:49;102051.28;;;13.26;26.94
70011;BME280;59543;37.950;-122.338;2022-11-20T04:31:18;102058.75;;;13.13;27.59
70011;BME280;59543;37.950;-122.338;2022-11-20T04:33:45;102066.53;;;13.07;29.09
70011;BME280;59543;37.950;-122.338;2022-11-20T04:36:16;102053.50;;;13.12;30.58
70011;BME280;59543;37.950;-122.338;2022-11-20T04:38:43;102057.97;;;12.80;31.51
70011;BME280;59543;37.950;-122.338;2022-11-20T04:41:17;102063.34;;;12.59;32.72
70011;BME280;59543;37.950;-122.338;2022-11-20T04:43:52;102067.13;;;12.36;33.84
70011;BME280;59543;37.950;-122.338;2022-11-20T04:46:20;102069.88;;;12.25;33.83
70011;BME280;59543;37.950;-122.338;2022-11-20T04:48:47;102076.41;;;12.00;34.89
70011;BME280;59543;37.950;-122.338;2022-11-20T04:51:13;102075.56;;;11.99;35.25
70011;BME280;59543;37.950;-122.338;2022-11-20T04:53:39;102087.47;;;11.52;36.44
70011;BME280;59543;37.950;-122.338;2022-11-20T04:56:08;102092.63;;;11.43;36.55
70011;BME280;59543;37.950;-122.338;2022-11-20T04:58:36;102095.06;;;11.35;37.27
70011;BME280;59543;37.950;-122.338;2022-11-20T05:01:10;102091.13;;;11.17;37.90
70011;BME280;59543;37.950;-122.338;2022-11-20T05:03:38;102101.16;;;10.80;39.00
70011;BME280;59543;37.950;-122.338;2022-11-20T05:06:05;102101.63;;;10.73;38.93
70011;BME280;59543;37.950;-122.338;2022-11-20T05:08:32;102112.34;;;10.97;39.07
70011;BME280;59543;37.950;-122.338;2022-11-20T05:11:05;102107.69;;;10.53;40.94
70011;BME280;59543;37.950;-122.338;2022-11-20T05:13:31;102110.91;;;10.69;40.49
70011;BME280;59543;37.950;-122.338;2022-11-20T05:16:05;102122.63;;;10.57;40.90
70011;BME280;59543;37.950;-122.338;2022-11-20T05:18:33;102120.53;;;10.61;40.71
70011;BME280;59543;37.950;-122.338;2022-11-20T05:21:00;102122.78;;;10.43;41.61
70011;BME280;59543;37.950;-122.338;2022-11-20T05:23:27;102132.00;;;10.15;41.62
70011;BME280;59543;37.950;-122.338;2022-11-20T05:25:54;102133.03;;;9.88;42.75
70011;BME280;59543;37.950;-122.338;2022-11-20T05:28:21;102138.19;;;9.91;42.88
70011;BME280;59543;37.950;-122.338;2022-11-20T05:30:47;102147.22;;;9.77;43.65
70011;BME280;59543;37.950;-122.338;2022-11-20T05:33:14;102138.00;;;9.81;43.39
70011;BME280;59543;37.950;-122.338;2022-11-20T05:35:41;102141.13;;;9.50;43.93
70011;BME280;59543;37.950;-122.338;2022-11-20T05:38:07;102141.34;;;9.47;43.70
70011;BME280;59543;37.950;-122.338;2022-11-20T05:40:33;102137.91;;;9.57;43.69
70011;BME280;59543;37.950;-122.338;2022-11-20T05:43:00;102135.75;;;9.50;43.93
70011;BME280;59543;37.950;-122.338;2022-11-20T05:45:26;102138.56;;;9.48;44.42
70011;BME280;59543;37.950;-122.338;2022-11-20T05:47:52;102134.03;;;9.23;44.69
70011;BME280;59543;37.950;-122.338;2022-11-20T05:50:18;102138.31;;;9.26;45.00
70011;BME280;59543;37.950;-122.338;2022-11-20T05:52:45;102139.72;;;9.19;44.93
70011;BME280;59543;37.950;-122.338;2022-11-20T05:55:11;102138.75;;;9.20;45.61
70011;BME280;59543;37.950;-122.338;2022-11-20T05:57:37;102147.56;;;9.09;46.41
70011;BME280;59543;37.950;-122.338;2022-11-20T06:00:03;102148.59;;;8.93;47.48
70011;BME280;59543;37.950;-122.338;2022-11-20T06:02:30;102156.53;;;8.95;47.59
70011;BME280;59543;37.950;-122.338;2022-11-20T06:04:56;102156.66;;;8.93;48.46
70011;BME280;59543;37.950;-122.338;2022-11-20T06:07:22;102162.41;;;8.87;48.87
70011;BME280;59543;37.950;-122.338;2022-11-20T06:09:48;102164.72;;;8.66;49.56
70011;BME280;59543;37.950;-122.338;2022-11-20T06:12:14;102162.31;;;8.89;49.52
70011;BME280;59543;37.950;-122.338;2022-11-20T06:14:40;102169.78;;;8.71;49.77
70011;BME280;59543;37.950;-122.338;2022-11-20T06:17:07;102174.97;;;8.60;50.22
70011;BME280;59543;37.950;-122.338;2022-11-20T06:19:33;102167.13;;;8.15;50.81
70011;BME280;59543;37.950;-122.338;2022-11-20T06:21:59;102169.50;;;8.20;50.46
70011;BME280;59543;37.950;-122.338;2022-11-20T06:24:25;102172.56;;;8.28;50.26
70011;BME280;59543;37.950;-122.338;2022-11-20T06:26:51;102171.22;;;8.21;49.93
70011;BME280;59543;37.950;-122.338;2022-11-20T06:29:17;102166.81;;;8.34;49.77
70011;BME280;59543;37.950;-122.338;2022-11-20T06:31:43;102171.19;;;8.35;49.52
70011;BME280;59543;37.950;-122.338;2022-11-20T06:34:10;102172.16;;;8.34;49.58
70011;BME280;59543;37.950;-122.338;2022-11-20T06:36:36;102174.66;;;8.37;49.18
70011;BME280;59543;37.950;-122.338;2022-11-20T06:39:03;102175.78;;;8.47;49.33
70011;BME280;59543;37.950;-122.338;2022-11-20T06:41:29;102171.66;;;8.56;49.47
70011;BME280;59543;37.950;-122.338;2022-11-20T06:43:55;102172.38;;;8.31;50.12
70011;BME280;59543;37.950;-122.338;2022-11-20T06:46:21;102170.47;;;8.19;51.00
70011;BME280;59543;37.950;-122.338;2022-11-20T06:48:48;102176.78;;;8.18;52.00
70011;BME280;59543;37.950;-122.338;2022-11-20T06:51:15;102166.44;;;8.12;52.09
70011;BME280;59543;37.950;-122.338;2022-11-20T06:53:41;102169.06;;;8.13;52.52
70011;BME280;59543;37.950;-122.338;2022-11-20T06:56:07;102168.59;;;8.07;52.45
70011;BME280;59543;37.950;-122.338;2022-11-20T06:58:35;102184.28;;;7.98;52.81
70011;BME280;59543;37.950;-122.338;2022-11-20T07:01:07;102182.72;;;8.09;52.17
70011;BME280;59543;37.950;-122.338;2022-11-20T07:03:33;102179.69;;;7.86;52.76
70011;BME280;59543;37.950;-122.338;2022-11-20T07:05:59;102182.97;;;7.91;52.84
70011;BME280;59543;37.950;-122.338;2022-11-20T07:08:26;102184.88;;;7.89;52.81
70011;BME280;59543;37.950;-122.338;2022-11-20T07:10:52;102188.59;;;7.72;52.95
70011;BME280;59543;37.950;-122.338;2022-11-20T07:13:22;102187.72;;;7.86;52.36
70011;BME280;59543;37.950;-122.338;2022-11-20T07:15:48;102191.66;;;7.81;52.26
70011;BME280;59543;37.950;-122.338;2022-11-20T07:18:14;102192.78;;;7.62;53.01
70011;BME280;59543;37.950;-122.338;2022-11-20T07:20:40;102193.56;;;7.93;52.04
70011;BME280;59543;37.950;-122.338;2022-11-20T07:23:06;102195.94;;;7.69;52.62
70011;BME280;59543;37.950;-122.338;2022-11-20T07:25:32;102190.59;;;7.97;51.70
70011;BME280;59543;37.950;-122.338;2022-11-20T07:27:59;102195.66;;;7.88;52.23
70011;BME280;59543;37.950;-122.338;2022-11-20T07:30:27;102192.78;;;7.91;51.94
70011;BME280;59543;37.950;-122.338;2022-11-20T07:32:54;102192.31;;;7.98;51.92
70011;BME280;59543;37.950;-122.338;2022-11-20T07:35:21;102198.56;;;7.70;52.67
70011;BME280;59543;37.950;-122.338;2022-11-20T07:37:48;102194.59;;;7.76;53.05
70011;BME280;59543;37.950;-122.338;2022-11-20T07:40:15;102195.28;;;7.65;53.35
70011;BME280;59543;37.950;-122.338;2022-11-20T07:42:51;102198.03;;;7.64;53.46
70011;BME280;59543;37.950;-122.338;2022-11-20T07:45:19;102192.03;;;7.60;53.94
70011;BME280;59543;37.950;-122.338;2022-11-20T07:47:45;102189.13;;;7.49;54.05
70011;BME280;59543;37.950;-122.338;2022-11-20T07:50:12;102188.44;;;7.31;54.42
70011;BME280;59543;37.950;-122.338;2022-11-20T07:52:39;102187.44;;;7.18;54.80
70011;BME280;59543;37.950;-122.338;2022-11-20T07:55:06;102191.28;;;7.14;55.19
70011;BME280;59543;37.950;-122.338;2022-11-20T07:57:32;102183.44;;;7.25;55.59
70011;BME280;59543;37.950;-122.338;2022-11-20T07:59:58;102180.06;;;7.37;55.44
70011;BME280;59543;37.950;-122.338;2022-11-20T08:02:25;102179.13;;;7.08;55.67
70011;BME280;59543;37.950;-122.338;2022-11-20T08:04:51;102180.53;;;6.99;56.13
70011;BME280;59543;37.950;-122.338;2022-11-20T08:07:17;102174.44;;;7.12;55.69
70011;BME280;59543;37.950;-122.338;2022-11-20T08:09:43;102182.84;;;7.05;56.04
70011;BME280;59543;37.950;-122.338;2022-11-20T08:12:17;102184.28;;;7.11;56.07
70011;BME280;59543;37.950;-122.338;2022-11-20T08:15:03;102177.91;;;6.98;56.36
70011;BME280;59543;37.950;-122.338;2022-11-20T08:17:30;102181.59;;;6.81;57.15
70011;BME280;59543;37.950;-122.338;2022-11-20T08:19:56;102182.53;;;6.80;57.52
70011;BME280;59543;37.950;-122.338;2022-11-20T08:22:22;102186.34;;;6.76;57.61
70011;BME280;59543;37.950;-122.338;2022-11-20T08:24:48;102181.19;;;6.73;57.50
70011;BME280;59543;37.950;-122.338;2022-11-20T08:27:14;102186.88;;;6.67;58.13
70011;BME280;59543;37.950;-122.338;2022-11-20T08:29:40;102182.41;;;6.51;58.00
70011;BME280;59543;37.950;-122.338;2022-11-20T08:32:06;102187.91;;;6.64;58.16
70011;BME280;59543;37.950;-122.338;2022-11-20T08:34:33;102180.56;;;6.83;57.73
70011;BME280;59543;37.950;-122.338;2022-11-20T08:36:58;102191.44;;;6.64;58.72
70011;BME280;59543;37.950;-122.338;2022-11-20T08:39:24;102183.00;;;6.72;58.39
70011;BME280;59543;37.950;-122.338;2022-11-20T08:41:50;102179.28;;;6.75;58.18
70011;BME280;59543;37.950;-122.338;2022-11-20T08:44:16;102171.69;;;6.83;58.34
70011;BME280;59543;37.950;-122.338;2022-11-20T08:46:43;102162.75;;;6.68;58.70
70011;BME280;59543;37.950;-122.338;2022-11-20T08:49:11;102167.63;;;6.76;58.67
70011;BME280;59543;37.950;-122.338;2022-11-20T08:51:38;102166.06;;;6.87;58.75
70011;BME280;59543;37.950;-122.338;2022-11-20T08:54:05;102168.16;;;6.67;59.04
70011;BME280;59543;37.950;-122.338;2022-11-20T08:56:33;102177.50;;;6.59;59.87
70011;BME280;59543;37.950;-122.338;2022-11-20T08:59:00;102175.41;;;6.64;59.86
70011;BME280;59543;37.950;-122.338;2022-11-20T09:01:27;102175.25;;;6.52;59.68
70011;BME280;59543;37.950;-122.338;2022-11-20T09:03:55;102164.22;;;6.42;60.23
70011;BME280;59543;37.950;-122.338;2022-11-20T09:06:22;102161.56;;;6.26;60.81
70011;BME280;59543;37.950;-122.338;2022-11-20T09:08:51;102172.16;;;6.44;60.13
70011;BME280;59543;37.950;-122.338;2022-11-20T09:11:18;102163.03;;;6.48;60.36
70011;BME280;59543;37.950;-122.338;2022-11-20T09:13:43;102165.69;;;6.48;60.03
70011;BME280;59543;37.950;-122.338;2022-11-20T09:16:09;102170.00;;;6.50;59.64
70011;BME280;59543;37.950;-122.338;2022-11-20T09:18:37;102170.22;;;6.61;58.98
70011;BME280;59543;37.950;-122.338;2022-11-20T09:21:11;102162.13;;;6.63;58.88
70011;BME280;59543;37.950;-122.338;2022-11-20T09:23:38;102169.34;;;6.77;58.47
70011;BME280;59543;37.950;-122.338;2022-11-20T09:26:07;102170.84;;;6.67;58.45
70011;BME280;59543;37.950;-122.338;2022-11-20T09:28:34;102169.53;;;6.74;58.26
70011;BME280;59543;37.950;-122.338;2022-11-20T09:31:00;102171.16;;;6.76;58.46
70011;BME280;59543;37.950;-122.338;2022-11-20T09:33:26;102175.03;;;6.71;58.93
70011;BME280;59543;37.950;-122.338;2022-11-20T09:35:53;102176.78;;;6.72;59.00
70011;BME280;59543;37.950;-122.338;2022-11-20T09:38:18;102176.97;;;6.69;58.94
70011;BME280;59543;37.950;-122.338;2022-11-20T09:41:03;102178.34;;;6.60;59.54
70011;BME280;59543;37.950;-122.338;2022-11-20T09:43:58;102182.91;;;6.58;59.66
70011;BME280;59543;37.950;-122.338;2022-11-20T09:46:40;102181.47;;;6.52;60.00
70011;BME280;59543;37.950;-122.338;2022-11-20T09:51:58;102185.09;;;6.51;60.60
70011;BME280;59543;37.950;-122.338;2022-11-20T09:54:33;102184.91;;;6.54;60.11
70011;BME280;59543;37.950;-122.338;2022-11-20T09:57:17;102187.50;;;6.56;60.00
70011;BME280;59543;37.950;-122.338;2022-11-20T09:59:59;102177.84;;;6.53;60.22
70011;BME280;59543;37.950;-122.338;2022-11-20T10:07:48;102186.56;;;6.41;60.57
70011;BME280;59543;37.950;-122.338;2022-11-20T10:10:32;102189.91;;;6.60;60.27
70011;BME280;59543;37.950;-122.338;2022-11-20T10:20:58;102192.25;;;6.19;62.10
70011;BME280;59543;37.950;-122.338;2022-11-20T10:26:17;102192.34;;;6.17;62.17
70011;BME280;59543;37.950;-122.338;2022-11-20T10:31:38;102192.41;;;6.16;62.16
70011;BME280;59543;37.950;-122.338;2022-11-20T10:34:25;102190.50;;;6.02;62.76
70011;BME280;59543;37.950;-122.338;2022-11-20T10:36:55;102193.09;;;6.04;63.03
70011;BME280;59543;37.950;-122.338;2022-11-20T10:42:11;102193.53;;;5.96;63.30
70011;BME280;59543;37.950;-122.338;2022-11-20T10:44:46;102191.56;;;6.15;62.25
70011;BME280;59543;37.950;-122.338;2022-11-20T10:47:30;102185.53;;;6.28;62.07
70011;BME280;59543;37.950;-122.338;2022-11-20T10:50:02;102181.38;;;6.22;62.17
70011;BME280;59543;37.950;-122.338;2022-11-20T10:55:40;102188.66;;;5.87;63.77
70011;BME280;59543;37.950;-122.338;2022-11-20T10:58:21;102201.63;;;5.77;64.79
70011;BME280;59543;37.950;-122.338;2022-11-20T11:00:51;102200.72;;;5.61;64.86
70011;BME280;59543;37.950;-122.338;2022-11-20T11:03:22;102197.03;;;5.63;64.82
70011;BME280;59543;37.950;-122.338;2022-11-20T11:05:58;102202.69;;;5.57;64.78
70011;BME280;59543;37.950;-122.338;2022-11-20T11:08:26;102193.69;;;5.76;64.81
70011;BME280;59543;37.950;-122.338;2022-11-20T11:10:57;102188.44;;;5.74;64.23
70011;BME280;59543;37.950;-122.338;2022-11-20T11:13:27;102187.91;;;5.67;64.29
70011;BME280;59543;37.950;-122.338;2022-11-20T11:15:54;102191.31;;;5.87;63.11
70011;BME280;59543;37.950;-122.338;2022-11-20T11:18:34;102180.34;;;5.93;63.38
70011;BME280;59543;37.950;-122.338;2022-11-20T11:21:02;102189.25;;;5.92;63.03
70011;BME280;59543;37.950;-122.338;2022-11-20T11:23:34;102183.47;;;5.84;64.11
70011;BME280;59543;37.950;-122.338;2022-11-20T11:26:04;102190.59;;;5.83;64.22
70011;BME280;59543;37.950;-122.338;2022-11-20T11:28:31;102196.38;;;5.76;64.21
70011;BME280;59543;37.950;-122.338;2022-11-20T11:30:58;102197.41;;;5.89;64.05
70011;BME280;59543;37.950;-122.338;2022-11-20T11:33:29;102192.50;;;5.81;64.61
70011;BME280;59543;37.950;-122.338;2022-11-20T11:35:56;102191.16;;;5.90;63.81
70011;BME280;59543;37.950;-122.338;2022-11-20T11:38:39;102193.38;;;5.82;64.33
70011;BME280;59543;37.950;-122.338;2022-11-20T11:41:09;102190.69;;;5.82;64.55
70011;BME280;59543;37.950;-122.338;2022-11-20T11:43:38;102200.28;;;5.68;64.81
70011;BME280;59543;37.950;-122.338;2022-11-20T11:46:30;102189.44;;;5.71;64.96
70011;BME280;59543;37.950;-122.338;2022-11-20T11:52:02;102191.56;;;5.82;65.22
70011;BME280;59543;37.950;-122.338;2022-11-20T11:54:34;102197.06;;;5.79;65.20
70011;BME280;59543;37.950;-122.338;2022-11-20T12:00:39;102199.97;;;5.74;65.20
70011;BME280;59543;37.950;-122.338;2022-11-20T12:03:10;102189.72;;;5.67;65.32
70011;BME280;59543;37.950;-122.338;2022-11-20T12:05:40;102195.44;;;5.59;65.34
70011;BME280;59543;37.950;-122.338;2022-11-20T12:16:03;102199.75;;;5.62;65.47
70011;BME280;59543;37.950;-122.338;2022-11-20T12:18:30;102196.41;;;5.58;66.34
70011;BME280;59543;37.950;-122.338;2022-11-20T12:21:06;102203.94;;;5.50;65.98
70011;BME280;59543;37.950;-122.338;2022-11-20T12:41:23;102214.63;;;5.83;65.54
70011;BME280;59543;37.950;-122.338;2022-11-20T12:53:05;102224.25;;;5.70;65.41
70011;BME280;59543;37.950;-122.338;2022-11-20T13:01:37;102224.47;;;5.65;65.46
70011;BME280;59543;37.950;-122.338;2022-11-20T13:06:50;102217.09;;;5.70;65.18
70011;BME280;59543;37.950;-122.338;2022-11-20T13:09:17;102214.91;;;5.61;65.37
70011;BME280;59543;37.950;-122.338;2022-11-20T13:19:52;102240.16;;;5.71;65.46
70011;BME280;59543;37.950;-122.338;2022-11-20T13:22:41;102249.94;;;5.55;66.20
70011;BME280;59543;37.950;-122.338;2022-11-20T13:25:25;102251.28;;;5.64;65.76
70011;BME280;59543;37.950;-122.338;2022-11-20T13:27:53;102259.59;;;5.58;65.34
70011;BME280;59543;37.950;-122.338;2022-11-20T13:30:27;102261.94;;;5.64;65.35
70011;BME280;59543;37.950;-122.338;2022-11-20T13:32:59;102256.81;;;5.77;64.45
70011;BME280;59543;37.950;-122.338;2022-11-20T13:35:34;102258.00;;;5.71;65.02
70011;BME280;59543;37.950;-122.338;2022-11-20T13:38:12;102263.28;;;5.55;64.99
70011;BME280;59543;37.950;-122.338;2022-11-20T13:41:00;102269.00;;;5.65;64.64
70011;BME280;59543;37.950;-122.338;2022-11-20T13:43:47;102264.78;;;5.78;64.71
70011;BME280;59543;37.950;-122.338;2022-11-20T13:46:14;102263.28;;;5.72;64.46
70011;BME280;59543;37.950;-122.338;2022-11-20T13:48:45;102260.28;;;5.79;64.60
70011;BME280;59543;37.950;-122.338;2022-11-20T13:57:01;102252.19;;;5.80;62.74
70011;BME280;59543;37.950;-122.338;2022-11-20T14:02:32;102256.59;;;5.81;63.04
70011;BME280;59543;37.950;-122.338;2022-11-20T14:05:00;102258.31;;;5.65;63.53
70011;BME280;59543;37.950;-122.338;2022-11-20T14:07:35;102259.28;;;5.64;63.59
70011;BME280;59543;37.950;-122.338;2022-11-20T14:10:05;102259.13;;;5.67;63.10
70011;BME280;59543;37.950;-122.338;2022-11-20T14:12:33;102259.19;;;5.65;63.31
70011;BME280;59543;37.950;-122.338;2022-11-20T14:15:00;102264.94;;;5.58;62.98